sensor_id;sensor_type;location;lat;lon;timestamp;temperature;humidity
792;DHT22;379;49.022;12.148;2022-12-19T00:00:20;-4.70;99.90
792;DHT22;379;49.022;12.148;2022-12-19T00:02:48;-4.70;99.90
792;DHT22;379;49.022;12.148;2022-12-19T00:05:15;-4.70;99.90
792;DHT22;379;49.022;12.148;2022-12-19T00:07:43;-4.70;99.90
792;DHT22;379;49.022;12.148;2022-12-19T00:10:09;-4.70;99.90
792;DHT22;379;49.022;12.148;2022-12-19T00:12:36;-4.70;99.90
792;DHT22;379;49.022;12.148;2022-12-19T00:15:03;-4.70;99.90
792;DHT22;379;49.022;12.148;2022-12-19T00:17:30;-4.60;99.90
792;DHT22;379;49.022;12.148;2022-12-19T00:19:57;-4.70;99.90
792;DHT22;379;49.022;12.148;2022-12-19T00:22:24;-4.70;99.90
792;DHT22;379;49.022;12.148;2022-12-19T00:24:52;-4.70;99.90
792;DHT22;379;49.022;12.148;2022-12-19T00:27:19;-4.70;99.90
792;DHT22;379;49.022;12.148;2022-12-19T00:29:46;-4.70;99.90
792;DHT22;379;49.022;12.148;2022-12-19T00:32:12;-4.70;99.90
792;DHT22;379;49.022;12.148;2022-12-19T00:34:39;-4.70;99.90
792;DHT22;379;49.022;12.148;2022-12-19T00:37:06;-4.70;99.90
792;DHT22;379;49.022;12.148;2022-12-19T00:39:33;-4.70;99.90
792;DHT22;379;49.022;12.148;2022-12-19T00:42:01;-4.70;99.90
792;DHT22;379;49.022;12.148;2022-12-19T00:44:27;-4.70;99.90
792;DHT22;379;49.022;12.148;2022-12-19T00:46:54;-4.70;99.90
792;DHT22;379;49.022;12.148;2022-12-19T00:49:21;-4.70;99.90
792;DHT22;379;49.022;12.148;2022-12-19T00:51:47;-4.70;99.90
792;DHT22;379;49.022;12.148;2022-12-19T00:54:14;-4.70;99.90
792;DHT22;379;49.022;12.148;2022-12-19T00:56:41;-4.60;99.90
792;DHT22;379;49.022;12.148;2022-12-19T00:59:09;-4.60;99.90
792;DHT22;379;49.022;12.148;2022-12-19T01:01:38;-4.60;99.90
792;DHT22;379;49.022;12.148;2022-12-19T01:04:06;-4.60;99.90
792;DHT22;379;49.022;12.148;2022-12-19T01:06:33;-4.60;99.90
792;DHT22;379;49.022;12.148;2022-12-19T01:09:00;-4.60;99.90
792;DHT22;379;49.022;12.148;2022-12-19T01:11:27;-4.60;99.90
792;DHT22;379;49.022;12.148;2022-12-19T01:14:09;-4.60;99.90
792;DHT22;379;49.022;12.148;2022-12-19T01:16:37;-4.60;99.90
792;DHT22;379;49.022;12.148;2022-12-19T01:19:03;-4.60;99.90
792;DHT22;379;49.022;12.148;2022-12-19T01:21:30;-4.50;99.90
792;DHT22;379;49.022;12.148;2022-12-19T01:24:05;-4.60;99.90
792;DHT22;379;49.022;12.148;2022-12-19T01:26:31;-4.60;99.90
792;DHT22;379;49.022;12.148;2022-12-19T01:28:58;-4.60;99.90
792;DHT22;379;49.022;12.148;2022-12-19T01:31:27;-4.60;99.90
792;DHT22;379;49.022;12.148;2022-12-19T01:33:53;-4.60;99.90
792;DHT22;379;49.022;12.148;2022-12-19T01:36:20;-4.60;99.90
792;DHT22;379;49.022;12.148;2022-12-19T01:38:47;-4.70;99.90
792;DHT22;379;49.022;12.148;2022-12-19T01:41:13;-4.70;99.90
792;DHT22;379;49.022;12.148;2022-12-19T01:43:59;-4.70;99.90
792;DHT22;379;49.022;12.148;2022-12-19T01:46:31;-4.70;99.90
792;DHT22;379;49.022;12.148;2022-12-19T01:48:59;-4.70;99.90
792;DHT22;379;49.022;12.148;2022-12-19T01:51:33;-4.70;99.90
792;DHT22;379;49.022;12.148;2022-12-19T01:54:03;-4.70;99.90
792;DHT22;379;49.022;12.148;2022-12-19T01:56:34;-4.70;99.90
792;DHT22;379;49.022;12.148;2022-12-19T01:59:05;-4.70;99.90
792;DHT22;379;49.022;12.148;2022-12-19T02:01:34;-4.60;99.90
792;DHT22;379;49.022;12.148;2022-12-19T02:04:01;-4.60;99.90
792;DHT22;379;49.022;12.148;2022-12-19T02:06:29;-4.60;99.90
792;DHT22;379;49.022;12.148;2022-12-19T02:08:56;-4.60;99.90
792;DHT22;379;49.022;12.148;2022-12-19T02:11:23;-4.60;99.90
792;DHT22;379;49.022;12.148;2022-12-19T02:13:51;-4.60;99.90
792;DHT22;379;49.022;12.148;2022-12-19T02:16:25;-4.60;99.90
792;DHT22;379;49.022;12.148;2022-12-19T02:19:01;-4.60;99.90
792;DHT22;379;49.022;12.148;2022-12-19T02:21:46;-4.50;99.90
792;DHT22;379;49.022;12.148;2022-12-19T02:27:27;-4.60;99.90
792;DHT22;379;49.022;12.148;2022-12-19T02:30:06;-4.60;99.90
792;DHT22;379;49.022;12.148;2022-12-19T02:32:47;-4.60;99.90
792;DHT22;379;49.022;12.148;2022-12-19T02:35:29;-4.60;99.90
792;DHT22;379;49.022;12.148;2022-12-19T02:38:06;-4.60;99.90
792;DHT22;379;49.022;12.148;2022-12-19T02:40:38;-4.60;99.90
792;DHT22;379;49.022;12.148;2022-12-19T02:43:08;-4.60;99.90
792;DHT22;379;49.022;12.148;2022-12-19T02:45:36;-4.50;99.90
792;DHT22;379;49.022;12.148;2022-12-19T02:48:06;-4.50;99.90
792;DHT22;379;49.022;12.148;2022-12-19T02:50:38;-4.50;99.90
792;DHT22;379;49.022;12.148;2022-12-19T02:53:05;-4.50;99.90
792;DHT22;379;49.022;12.148;2022-12-19T02:55:37;-4.50;99.90
792;DHT22;379;49.022;12.148;2022-12-19T02:58:28;-4.50;99.90
792;DHT22;379;49.022;12.148;2022-12-19T03:01:07;-4.50;99.90
792;DHT22;379;49.022;12.148;2022-12-19T03:03:46;-4.50;99.90
792;DHT22;379;49.022;12.148;2022-12-19T03:06:22;-4.50;99.90
792;DHT22;379;49.022;12.148;2022-12-19T03:08:55;-4.40;99.90
792;DHT22;379;49.022;12.148;2022-12-19T03:11:28;-4.40;99.90
792;DHT22;379;49.022;12.148;2022-12-19T03:13:59;-4.40;99.90
792;DHT22;379;49.022;12.148;2022-12-19T03:16:27;-4.40;99.90
792;DHT22;379;49.022;12.148;2022-12-19T03:18:56;-4.40;99.90
792;DHT22;379;49.022;12.148;2022-12-19T03:21:27;-4.40;99.90
792;DHT22;379;49.022;12.148;2022-12-19T03:23:55;-4.40;99.90
792;DHT22;379;49.022;12.148;2022-12-19T03:26:26;-4.40;99.90
792;DHT22;379;49.022;12.148;2022-12-19T03:28:57;-4.40;99.90
792;DHT22;379;49.022;12.148;2022-12-19T03:31:28;-4.40;99.90
792;DHT22;379;49.022;12.148;2022-12-19T03:34:00;-4.40;99.90
792;DHT22;379;49.022;12.148;2022-12-19T03:36:31;-4.40;99.90
792;DHT22;379;49.022;12.148;2022-12-19T03:39:01;-4.40;99.90
792;DHT22;379;49.022;12.148;2022-12-19T03:41:30;-4.40;99.90
792;DHT22;379;49.022;12.148;2022-12-19T03:44:14;-4.40;99.90
792;DHT22;379;49.022;12.148;2022-12-19T03:46:47;-4.40;99.90
792;DHT22;379;49.022;12.148;2022-12-19T03:49:18;-4.40;99.90
792;DHT22;379;49.022;12.148;2022-12-19T03:51:49;-4.30;99.90
792;DHT22;379;49.022;12.148;2022-12-19T03:54:22;-4.30;99.90
792;DHT22;379;49.022;12.148;2022-12-19T03:56:54;-4.30;99.90
792;DHT22;379;49.022;12.148;2022-12-19T03:59:32;-4.30;99.90
792;DHT22;379;49.022;12.148;2022-12-19T04:02:02;-4.30;99.90
792;DHT22;379;49.022;12.148;2022-12-19T04:04:35;-4.30;99.90
792;DHT22;379;49.022;12.148;2022-12-19T04:07:04;-4.30;99.90
792;DHT22;379;49.022;12.148;2022-12-19T04:09:33;-4.30;99.90
792;DHT22;379;49.022;12.148;2022-12-19T04:12:03;-4.30;99.90
792;DHT22;379;49.022;12.148;2022-12-19T04:14:32;-4.30;99.90
792;DHT22;379;49.022;12.148;2022-12-19T04:17:05;-4.30;99.90
792;DHT22;379;49.022;12.148;2022-12-19T04:19:38;-4.30;99.90
792;DHT22;379;49.022;12.148;2022-12-19T04:22:12;-4.30;99.90
792;DHT22;379;49.022;12.148;2022-12-19T04:24:42;-4.20;99.90
792;DHT22;379;49.022;12.148;2022-12-19T04:27:11;-4.20;99.90
792;DHT22;379;49.022;12.148;2022-12-19T04:29:40;-4.20;99.90
792;DHT22;379;49.022;12.148;2022-12-19T04:32:07;-4.20;99.90
792;DHT22;379;49.022;12.148;2022-12-19T04:34:36;-4.20;99.90
792;DHT22;379;49.022;12.148;2022-12-19T04:37:03;-4.20;99.90
792;DHT22;379;49.022;12.148;2022-12-19T04:39:30;-4.20;99.90
792;DHT22;379;49.022;12.148;2022-12-19T04:41:57;-4.10;99.90
792;DHT22;379;49.022;12.148;2022-12-19T04:44:23;-4.10;99.90
792;DHT22;379;49.022;12.148;2022-12-19T04:46:50;-4.10;99.90
792;DHT22;379;49.022;12.148;2022-12-19T04:49:17;-4.10;99.90
792;DHT22;379;49.022;12.148;2022-12-19T04:51:45;-4.10;99.90
792;DHT22;379;49.022;12.148;2022-12-19T04:54:12;-4.10;99.90
792;DHT22;379;49.022;12.148;2022-12-19T04:56:38;-4.00;99.90
792;DHT22;379;49.022;12.148;2022-12-19T04:59:05;-4.00;99.90
792;DHT22;379;49.022;12.148;2022-12-19T05:01:32;-4.00;99.90
792;DHT22;379;49.022;12.148;2022-12-19T05:03:59;-4.10;99.90
792;DHT22;379;49.022;12.148;2022-12-19T05:06:25;-4.10;99.90
792;DHT22;379;49.022;12.148;2022-12-19T05:08:53;-4.00;99.90
792;DHT22;379;49.022;12.148;2022-12-19T05:11:20;-3.90;99.90
792;DHT22;379;49.022;12.148;2022-12-19T05:13:47;-3.90;99.90
792;DHT22;379;49.022;12.148;2022-12-19T05:16:15;-3.90;99.90
792;DHT22;379;49.022;12.148;2022-12-19T05:18:42;-3.90;99.90
792;DHT22;379;49.022;12.148;2022-12-19T05:21:09;-3.90;99.90
792;DHT22;379;49.022;12.148;2022-12-19T05:23:36;-4.00;99.90
792;DHT22;379;49.022;12.148;2022-12-19T05:26:05;-3.90;99.90
792;DHT22;379;49.022;12.148;2022-12-19T05:28:33;-3.90;99.90
792;DHT22;379;49.022;12.148;2022-12-19T05:31:05;-3.90;99.90
792;DHT22;379;49.022;12.148;2022-12-19T05:33:32;-3.90;99.90
792;DHT22;379;49.022;12.148;2022-12-19T05:35:59;-3.90;99.90
792;DHT22;379;49.022;12.148;2022-12-19T05:38:26;-3.80;99.90
792;DHT22;379;49.022;12.148;2022-12-19T05:40:53;-3.80;99.90
792;DHT22;379;49.022;12.148;2022-12-19T05:43:21;-3.80;99.90
792;DHT22;379;49.022;12.148;2022-12-19T05:45:47;-3.70;99.90
792;DHT22;379;49.022;12.148;2022-12-19T05:48:14;-3.60;99.90
792;DHT22;379;49.022;12.148;2022-12-19T05:50:46;-3.60;99.90
792;DHT22;379;49.022;12.148;2022-12-19T05:53:12;-3.60;99.90
792;DHT22;379;49.022;12.148;2022-12-19T05:55:39;-3.70;99.90
792;DHT22;379;49.022;12.148;2022-12-19T05:58:06;-3.70;99.90
792;DHT22;379;49.022;12.148;2022-12-19T06:00:34;-3.70;99.90
792;DHT22;379;49.022;12.148;2022-12-19T06:03:01;-3.80;99.90
792;DHT22;379;49.022;12.148;2022-12-19T06:05:28;-3.80;99.90
792;DHT22;379;49.022;12.148;2022-12-19T06:07:55;-3.80;99.90
792;DHT22;379;49.022;12.148;2022-12-19T06:10:22;-3.80;99.90
792;DHT22;379;49.022;12.148;2022-12-19T06:12:48;-3.70;99.90
792;DHT22;379;49.022;12.148;2022-12-19T06:15:15;-3.80;99.90
792;DHT22;379;49.022;12.148;2022-12-19T06:17:44;-3.80;99.90
792;DHT22;379;49.022;12.148;2022-12-19T06:20:10;-3.80;99.90
792;DHT22;379;49.022;12.148;2022-12-19T06:22:37;-3.80;99.90
792;DHT22;379;49.022;12.148;2022-12-19T06:25:05;-3.80;99.90
792;DHT22;379;49.022;12.148;2022-12-19T06:27:32;-3.70;99.90
792;DHT22;379;49.022;12.148;2022-12-19T06:29:59;-3.70;99.90
792;DHT22;379;49.022;12.148;2022-12-19T06:32:26;-3.70;99.90
792;DHT22;379;49.022;12.148;2022-12-19T06:34:54;-3.70;99.90
792;DHT22;379;49.022;12.148;2022-12-19T06:37:20;-3.70;99.90
792;DHT22;379;49.022;12.148;2022-12-19T06:39:49;-3.70;99.90
792;DHT22;379;49.022;12.148;2022-12-19T06:42:16;-3.70;99.90
792;DHT22;379;49.022;12.148;2022-12-19T06:44:47;-3.70;99.90
792;DHT22;379;49.022;12.148;2022-12-19T06:47:15;-3.70;99.90
792;DHT22;379;49.022;12.148;2022-12-19T06:49:41;-3.70;99.90
792;DHT22;379;49.022;12.148;2022-12-19T06:52:10;-3.70;99.90
792;DHT22;379;49.022;12.148;2022-12-19T06:54:37;-3.70;99.90
792;DHT22;379;49.022;12.148;2022-12-19T06:57:04;-3.70;99.90
792;DHT22;379;49.022;12.148;2022-12-19T06:59:30;-3.70;99.90
792;DHT22;379;49.022;12.148;2022-12-19T07:02:00;-3.70;99.90
792;DHT22;379;49.022;12.148;2022-12-19T07:04:29;-3.60;99.90
792;DHT22;379;49.022;12.148;2022-12-19T07:06:58;-3.60;99.90
792;DHT22;379;49.022;12.148;2022-12-19T07:09:28;-3.60;99.90
792;DHT22;379;49.022;12.148;2022-12-19T07:11:56;-3.50;99.90
792;DHT22;379;49.022;12.148;2022-12-19T07:14:22;-3.40;99.90
792;DHT22;379;49.022;12.148;2022-12-19T07:16:50;-3.40;99.90
792;DHT22;379;49.022;12.148;2022-12-19T07:19:18;-3.40;99.90
792;DHT22;379;49.022;12.148;2022-12-19T07:21:45;-3.30;99.90
792;DHT22;379;49.022;12.148;2022-12-19T07:24:12;-3.30;99.90
792;DHT22;379;49.022;12.148;2022-12-19T07:26:42;-3.30;99.90
792;DHT22;379;49.022;12.148;2022-12-19T07:29:11;-3.20;99.90
792;DHT22;379;49.022;12.148;2022-12-19T07:31:37;-3.10;99.90
792;DHT22;379;49.022;12.148;2022-12-19T07:34:04;-3.10;99.90
792;DHT22;379;49.022;12.148;2022-12-19T07:36:31;-3.10;99.90
792;DHT22;379;49.022;12.148;2022-12-19T07:38:58;-3.00;99.90
792;DHT22;379;49.022;12.148;2022-12-19T07:41:24;-3.00;99.90
792;DHT22;379;49.022;12.148;2022-12-19T07:43:53;-3.00;99.90
792;DHT22;379;49.022;12.148;2022-12-19T07:46:19;-2.90;99.90
792;DHT22;379;49.022;12.148;2022-12-19T07:48:46;-2.90;99.90
792;DHT22;379;49.022;12.148;2022-12-19T07:51:13;-2.80;99.90
792;DHT22;379;49.022;12.148;2022-12-19T07:53:40;-2.80;99.90
792;DHT22;379;49.022;12.148;2022-12-19T07:56:07;-2.80;99.90
792;DHT22;379;49.022;12.148;2022-12-19T07:58:34;-2.70;99.90
792;DHT22;379;49.022;12.148;2022-12-19T08:01:02;-2.70;99.90
792;DHT22;379;49.022;12.148;2022-12-19T08:03:30;-2.60;99.90
792;DHT22;379;49.022;12.148;2022-12-19T08:06:02;-2.50;99.90
792;DHT22;379;49.022;12.148;2022-12-19T08:08:29;-2.50;99.90
792;DHT22;379;49.022;12.148;2022-12-19T08:11:04;-2.50;99.90
792;DHT22;379;49.022;12.148;2022-12-19T08:13:31;-2.50;99.90
792;DHT22;379;49.022;12.148;2022-12-19T08:15:58;-2.40;99.90
792;DHT22;379;49.022;12.148;2022-12-19T08:18:27;-2.40;99.90
792;DHT22;379;49.022;12.148;2022-12-19T08:20:54;-2.30;99.90
792;DHT22;379;49.022;12.148;2022-12-19T08:23:20;-2.30;99.90
792;DHT22;379;49.022;12.148;2022-12-19T08:25:47;-2.20;99.90
792;DHT22;379;49.022;12.148;2022-12-19T08:28:14;-2.20;99.90
792;DHT22;379;49.022;12.148;2022-12-19T08:30:41;-2.10;99.90
792;DHT22;379;49.022;12.148;2022-12-19T08:33:07;-2.00;99.90
792;DHT22;379;49.022;12.148;2022-12-19T08:35:36;-2.00;99.90
792;DHT22;379;49.022;12.148;2022-12-19T08:38:02;-1.90;99.90
792;DHT22;379;49.022;12.148;2022-12-19T08:40:29;-1.80;99.90
792;DHT22;379;49.022;12.148;2022-12-19T08:42:56;-1.60;99.90
792;DHT22;379;49.022;12.148;2022-12-19T08:45:22;-1.60;99.90
792;DHT22;379;49.022;12.148;2022-12-19T08:47:49;-1.50;99.90
792;DHT22;379;49.022;12.148;2022-12-19T08:50:16;-1.50;99.90
792;DHT22;379;49.022;12.148;2022-12-19T08:52:44;-1.40;99.90
792;DHT22;379;49.022;12.148;2022-12-19T08:55:10;-1.40;99.90
792;DHT22;379;49.022;12.148;2022-12-19T08:57:37;-1.30;99.90
792;DHT22;379;49.022;12.148;2022-12-19T09:00:05;-1.30;99.90
792;DHT22;379;49.022;12.148;2022-12-19T09:02:32;-1.20;99.90
792;DHT22;379;49.022;12.148;2022-12-19T09:04:59;-1.10;99.90
792;DHT22;379;49.022;12.148;2022-12-19T09:07:26;-1.00;99.90
792;DHT22;379;49.022;12.148;2022-12-19T09:09:54;-1.00;99.90
792;DHT22;379;49.022;12.148;2022-12-19T09:12:21;-0.90;99.90
792;DHT22;379;49.022;12.148;2022-12-19T09:14:48;-0.90;99.90
792;DHT22;379;49.022;12.148;2022-12-19T09:17:15;-0.90;99.90
792;DHT22;379;49.022;12.148;2022-12-19T09:19:42;-0.80;99.90
792;DHT22;379;49.022;12.148;2022-12-19T09:22:09;-0.90;99.90
792;DHT22;379;49.022;12.148;2022-12-19T09:24:36;-0.90;99.90
792;DHT22;379;49.022;12.148;2022-12-19T09:27:04;-0.90;99.90
792;DHT22;379;49.022;12.148;2022-12-19T09:29:31;-0.80;99.90
792;DHT22;379;49.022;12.148;2022-12-19T09:31:57;-0.70;99.90
792;DHT22;379;49.022;12.148;2022-12-19T09:34:25;-0.60;99.90
792;DHT22;379;49.022;12.148;2022-12-19T09:36:53;-0.60;99.90
792;DHT22;379;49.022;12.148;2022-12-19T09:39:19;-0.50;99.90
792;DHT22;379;49.022;12.148;2022-12-19T09:42:09;-0.50;99.90
792;DHT22;379;49.022;12.148;2022-12-19T09:44:57;-0.40;99.90
792;DHT22;379;49.022;12.148;2022-12-19T09:47:29;-0.40;99.90
792;DHT22;379;49.022;12.148;2022-12-19T09:49:56;-0.40;99.90
792;DHT22;379;49.022;12.148;2022-12-19T09:52:27;-0.20;99.90
792;DHT22;379;49.022;12.148;2022-12-19T09:54:59;-0.20;99.90
792;DHT22;379;49.022;12.148;2022-12-19T09:57:35;-0.20;99.90
792;DHT22;379;49.022;12.148;2022-12-19T10:00:09;-0.10;99.90
792;DHT22;379;49.022;12.148;2022-12-19T10:02:42;-0.10;99.90
792;DHT22;379;49.022;12.148;2022-12-19T10:05:17;-0.10;99.90
792;DHT22;379;49.022;12.148;2022-12-19T10:07:47;0.00;99.90
792;DHT22;379;49.022;12.148;2022-12-19T10:10:16;0.10;99.90
792;DHT22;379;49.022;12.148;2022-12-19T10:12:57;0.10;99.90
792;DHT22;379;49.022;12.148;2022-12-19T10:15:35;0.10;99.90
792;DHT22;379;49.022;12.148;2022-12-19T10:18:33;0.10;99.90
792;DHT22;379;49.022;12.148;2022-12-19T10:21:05;0.20;99.90
792;DHT22;379;49.022;12.148;2022-12-19T10:23:51;0.30;99.90
792;DHT22;379;49.022;12.148;2022-12-19T10:26:26;0.30;99.90
792;DHT22;379;49.022;12.148;2022-12-19T10:29:18;0.30;99.90
792;DHT22;379;49.022;12.148;2022-12-19T10:31:52;0.40;99.90
792;DHT22;379;49.022;12.148;2022-12-19T10:34:21;0.50;99.90
792;DHT22;379;49.022;12.148;2022-12-19T10:36:51;0.50;99.90
792;DHT22;379;49.022;12.148;2022-12-19T10:39:26;0.50;99.90
792;DHT22;379;49.022;12.148;2022-12-19T10:41:58;0.60;99.90
792;DHT22;379;49.022;12.148;2022-12-19T10:44:30;0.60;99.90
792;DHT22;379;49.022;12.148;2022-12-19T10:47:00;0.50;99.90
792;DHT22;379;49.022;12.148;2022-12-19T10:49:27;0.50;99.90
792;DHT22;379;49.022;12.148;2022-12-19T10:51:58;0.50;99.90
792;DHT22;379;49.022;12.148;2022-12-19T10:54:36;0.60;99.90
792;DHT22;379;49.022;12.148;2022-12-19T10:57:18;0.70;99.90
792;DHT22;379;49.022;12.148;2022-12-19T10:59:55;0.70;99.90
792;DHT22;379;49.022;12.148;2022-12-19T11:02:31;0.80;99.90
792;DHT22;379;49.022;12.148;2022-12-19T11:04:59;0.90;99.90
792;DHT22;379;49.022;12.148;2022-12-19T11:07:26;1.00;99.90
792;DHT22;379;49.022;12.148;2022-12-19T11:09:53;1.10;99.90
792;DHT22;379;49.022;12.148;2022-12-19T11:12:19;1.20;99.90
792;DHT22;379;49.022;12.148;2022-12-19T11:14:50;1.20;99.90
792;DHT22;379;49.022;12.148;2022-12-19T11:17:26;1.30;99.90
792;DHT22;379;49.022;12.148;2022-12-19T11:20:10;1.40;99.90
792;DHT22;379;49.022;12.148;2022-12-19T11:22:37;1.40;99.90
792;DHT22;379;49.022;12.148;2022-12-19T11:25:05;1.30;99.90
792;DHT22;379;49.022;12.148;2022-12-19T11:27:40;1.30;99.90
792;DHT22;379;49.022;12.148;2022-12-19T11:30:19;1.30;99.90
792;DHT22;379;49.022;12.148;2022-12-19T11:32:48;1.30;99.90
792;DHT22;379;49.022;12.148;2022-12-19T11:35:31;1.30;99.90
792;DHT22;379;49.022;12.148;2022-12-19T11:37:59;1.30;99.90
792;DHT22;379;49.022;12.148;2022-12-19T11:40:32;1.40;99.90
792;DHT22;379;49.022;12.148;2022-12-19T11:43:05;1.40;99.90
792;DHT22;379;49.022;12.148;2022-12-19T11:45:39;1.50;99.90
792;DHT22;379;49.022;12.148;2022-12-19T11:48:14;1.50;99.90
792;DHT22;379;49.022;12.148;2022-12-19T11:50:51;1.50;99.90
792;DHT22;379;49.022;12.148;2022-12-19T11:53:27;1.50;99.90
792;DHT22;379;49.022;12.148;2022-12-19T11:55:57;1.60;99.90
792;DHT22;379;49.022;12.148;2022-12-19T11:58:27;1.50;99.90
792;DHT22;379;49.022;12.148;2022-12-19T12:01:01;1.40;99.90
792;DHT22;379;49.022;12.148;2022-12-19T12:03:42;1.40;99.90
792;DHT22;379;49.022;12.148;2022-12-19T12:06:12;1.50;99.90
792;DHT22;379;49.022;12.148;2022-12-19T12:08:52;1.30;99.90
792;DHT22;379;49.022;12.148;2022-12-19T12:11:23;1.30;99.90
792;DHT22;379;49.022;12.148;2022-12-19T12:14:13;1.20;99.90
792;DHT22;379;49.022;12.148;2022-12-19T12:17:01;1.20;99.90
792;DHT22;379;49.022;12.148;2022-12-19T12:22:39;1.20;99.90
792;DHT22;379;49.022;12.148;2022-12-19T12:25:22;1.30;99.90
792;DHT22;379;49.022;12.148;2022-12-19T12:28:00;1.30;99.90
792;DHT22;379;49.022;12.148;2022-12-19T12:30:36;1.30;99.90
792;DHT22;379;49.022;12.148;2022-12-19T12:33:09;1.30;99.90
792;DHT22;379;49.022;12.148;2022-12-19T12:35:45;1.30;99.90
792;DHT22;379;49.022;12.148;2022-12-19T12:38:36;1.20;99.90
792;DHT22;379;49.022;12.148;2022-12-19T12:41:20;1.20;99.90
792;DHT22;379;49.022;12.148;2022-12-19T12:44:10;1.10;99.90
792;DHT22;379;49.022;12.148;2022-12-19T12:46:40;1.10;99.90
792;DHT22;379;49.022;12.148;2022-12-19T12:49:26;1.10;99.90
792;DHT22;379;49.022;12.148;2022-12-19T12:51:57;1.10;99.90
792;DHT22;379;49.022;12.148;2022-12-19T12:54:27;1.10;99.90
792;DHT22;379;49.022;12.148;2022-12-19T12:56:57;1.10;99.90
792;DHT22;379;49.022;12.148;2022-12-19T12:59:25;1.10;99.90
792;DHT22;379;49.022;12.148;2022-12-19T13:01:55;1.10;99.90
792;DHT22;379;49.022;12.148;2022-12-19T13:04:29;1.20;99.90
792;DHT22;379;49.022;12.148;2022-12-19T13:10:04;1.10;99.90
792;DHT22;379;49.022;12.148;2022-12-19T13:12:31;1.10;99.90
792;DHT22;379;49.022;12.148;2022-12-19T13:15:28;1.20;99.90
792;DHT22;379;49.022;12.148;2022-12-19T13:18:08;1.30;99.90
792;DHT22;379;49.022;12.148;2022-12-19T13:20:43;1.30;99.90
792;DHT22;379;49.022;12.148;2022-12-19T13:23:23;1.20;99.90
792;DHT22;379;49.022;12.148;2022-12-19T13:25:59;1.20;99.90
792;DHT22;379;49.022;12.148;2022-12-19T13:28:40;1.10;99.90
792;DHT22;379;49.022;12.148;2022-12-19T13:31:18;1.00;99.90
792;DHT22;379;49.022;12.148;2022-12-19T13:34:15;1.00;99.90
792;DHT22;379;49.022;12.148;2022-12-19T13:36:44;0.90;99.90
792;DHT22;379;49.022;12.148;2022-12-19T13:39:24;0.90;99.90
792;DHT22;379;49.022;12.148;2022-12-19T13:42:01;0.90;99.90
792;DHT22;379;49.022;12.148;2022-12-19T13:44:48;0.90;99.90
792;DHT22;379;49.022;12.148;2022-12-19T13:47:16;1.00;99.90
792;DHT22;379;49.022;12.148;2022-12-19T13:49:44;0.90;99.90
792;DHT22;379;49.022;12.148;2022-12-19T13:52:11;0.90;99.90
792;DHT22;379;49.022;12.148;2022-12-19T13:54:46;0.80;99.90
792;DHT22;379;49.022;12.148;2022-12-19T13:57:20;0.80;99.90
792;DHT22;379;49.022;12.148;2022-12-19T13:59:48;0.80;99.90
792;DHT22;379;49.022;12.148;2022-12-19T14:02:19;0.70;99.90
792;DHT22;379;49.022;12.148;2022-12-19T14:04:49;0.70;99.90
792;DHT22;379;49.022;12.148;2022-12-19T14:07:26;0.80;99.90
792;DHT22;379;49.022;12.148;2022-12-19T14:09:55;0.70;99.90
792;DHT22;379;49.022;12.148;2022-12-19T14:12:24;0.70;99.90
792;DHT22;379;49.022;12.148;2022-12-19T14:15:27;0.70;99.90
792;DHT22;379;49.022;12.148;2022-12-19T14:17:54;0.60;99.90
792;DHT22;379;49.022;12.148;2022-12-19T14:20:23;0.50;99.90
792;DHT22;379;49.022;12.148;2022-12-19T14:22:55;0.50;99.90
792;DHT22;379;49.022;12.148;2022-12-19T14:25:25;0.40;99.90
792;DHT22;379;49.022;12.148;2022-12-19T14:27:57;0.30;99.90
792;DHT22;379;49.022;12.148;2022-12-19T14:30:29;0.30;99.90
792;DHT22;379;49.022;12.148;2022-12-19T14:33:02;0.20;99.90
792;DHT22;379;49.022;12.148;2022-12-19T14:35:35;0.10;99.90
792;DHT22;379;49.022;12.148;2022-12-19T14:38:04;0.10;99.90
792;DHT22;379;49.022;12.148;2022-12-19T14:40:38;0.00;99.90
792;DHT22;379;49.022;12.148;2022-12-19T14:43:11;0.00;99.90
792;DHT22;379;49.022;12.148;2022-12-19T14:46:10;0.00;99.90
792;DHT22;379;49.022;12.148;2022-12-19T14:48:48;-0.10;99.90
792;DHT22;379;49.022;12.148;2022-12-19T14:51:23;-0.10;99.90
792;DHT22;379;49.022;12.148;2022-12-19T14:54:06;-0.20;99.90
792;DHT22;379;49.022;12.148;2022-12-19T14:56:45;-0.20;99.90
792;DHT22;379;49.022;12.148;2022-12-19T14:59:22;-0.20;99.90
792;DHT22;379;49.022;12.148;2022-12-19T15:01:51;-0.30;99.90
792;DHT22;379;49.022;12.148;2022-12-19T15:04:22;-0.40;99.90
792;DHT22;379;49.022;12.148;2022-12-19T15:06:52;-0.40;99.90
792;DHT22;379;49.022;12.148;2022-12-19T15:09:20;-0.50;99.90
792;DHT22;379;49.022;12.148;2022-12-19T15:11:54;-0.60;99.90
792;DHT22;379;49.022;12.148;2022-12-19T15:14:42;-0.60;99.90
792;DHT22;379;49.022;12.148;2022-12-19T15:17:18;-0.70;99.90
792;DHT22;379;49.022;12.148;2022-12-19T15:19:45;-0.80;99.90
792;DHT22;379;49.022;12.148;2022-12-19T15:22:12;-0.80;99.90
792;DHT22;379;49.022;12.148;2022-12-19T15:24:38;-0.80;99.90
792;DHT22;379;49.022;12.148;2022-12-19T15:27:10;-0.80;99.90
792;DHT22;379;49.022;12.148;2022-12-19T15:29:38;-0.80;99.90
792;DHT22;379;49.022;12.148;2022-12-19T15:32:05;-0.80;99.90
792;DHT22;379;49.022;12.148;2022-12-19T15:34:32;-0.70;99.90
792;DHT22;379;49.022;12.148;2022-12-19T15:36:59;-0.70;99.90
792;DHT22;379;49.022;12.148;2022-12-19T15:39:27;-0.70;99.90
792;DHT22;379;49.022;12.148;2022-12-19T15:41:57;-0.70;99.90
792;DHT22;379;49.022;12.148;2022-12-19T15:44:30;-0.70;99.90
792;DHT22;379;49.022;12.148;2022-12-19T15:46:57;-0.80;99.90
792;DHT22;379;49.022;12.148;2022-12-19T15:49:24;-0.80;99.90
792;DHT22;379;49.022;12.148;2022-12-19T15:51:51;-0.90;99.90
792;DHT22;379;49.022;12.148;2022-12-19T15:54:18;-0.90;99.90
792;DHT22;379;49.022;12.148;2022-12-19T15:56:48;-0.90;99.90
792;DHT22;379;49.022;12.148;2022-12-19T15:59:22;-0.90;99.90
792;DHT22;379;49.022;12.148;2022-12-19T16:01:52;-1.00;99.90
792;DHT22;379;49.022;12.148;2022-12-19T16:04:18;-1.00;99.90
792;DHT22;379;49.022;12.148;2022-12-19T16:06:46;-1.10;99.90
792;DHT22;379;49.022;12.148;2022-12-19T16:09:20;-1.10;99.90
792;DHT22;379;49.022;12.148;2022-12-19T16:11:48;-1.10;99.90
792;DHT22;379;49.022;12.148;2022-12-19T16:14:15;-1.20;99.90
792;DHT22;379;49.022;12.148;2022-12-19T16:16:42;-1.20;99.90
792;DHT22;379;49.022;12.148;2022-12-19T16:19:22;-1.20;99.90
792;DHT22;379;49.022;12.148;2022-12-19T16:21:50;-1.20;99.90
792;DHT22;379;49.022;12.148;2022-12-19T16:24:16;-1.20;99.90
792;DHT22;379;49.022;12.148;2022-12-19T16:26:48;-1.20;99.90
792;DHT22;379;49.022;12.148;2022-12-19T16:29:18;-1.10;99.90
792;DHT22;379;49.022;12.148;2022-12-19T16:31:45;-1.10;99.90
792;DHT22;379;49.022;12.148;2022-12-19T16:34:14;-1.00;99.90
792;DHT22;379;49.022;12.148;2022-12-19T16:36:42;-1.00;99.90
792;DHT22;379;49.022;12.148;2022-12-19T16:39:09;-0.90;99.90
792;DHT22;379;49.022;12.148;2022-12-19T16:41:36;-0.80;99.90
792;DHT22;379;49.022;12.148;2022-12-19T16:44:03;-0.80;99.90
792;DHT22;379;49.022;12.148;2022-12-19T16:46:38;-0.70;99.90
792;DHT22;379;49.022;12.148;2022-12-19T16:49:07;-0.70;99.90
792;DHT22;379;49.022;12.148;2022-12-19T16:51:36;-0.70;99.90
792;DHT22;379;49.022;12.148;2022-12-19T16:54:04;-0.70;99.90